North Randall, Ohio
Current Conditions -  °F | °C
As of 1:53 PM on Thursday 18 Dec 2014 (Local Time) from KBKL Reporting Station
Overcast Overcast  
Wind Chill: 23°   Ceiling: 1900
Heat Index: 32°   Visibility: 10mi
Dew Point: 24°   Wind: 13mph
Humidity: 73%   Direction: 230°SW
Pressure: 30.16"   Gusts: NA
Location:  41.4368°N, 81.5396°W
Report Text: KBKL 181853Z 23011KT 10SM OVC019 00/M04 A3016 RMK AO2 SLP220 T00001044
Loading
Personal Weather Stations






























Interactive Weather Map New forecast layout! Learn more

10-Day Weather Forecast

Advertisements
Track Severe Weather on mobile